Time;durP1;ratioP1;P1;durP2;ratioP2;P2;SDS_P1;SDS_P2;PMS_P1;PMS_P2;Temp;Humidity;BMP_temperature;BMP_pressure;BME280_temperature;BME280_humidity;BME280_pressure;Samples;Min_cycle;Max_cycle;Signal;HPM_P1;HPM_P2
2023/04/17 00:01:36;;;;;;;4.80;4.40;;;16.10;99.90;;;;;;5056329;28;20505;-82
2023/04/17 00:04:02;;;;;;;5.83;5.23;;;16.10;99.90;;;;;;5038560;28;20174;-80
2023/04/17 00:06:28;;;;;;;5.97;5.37;;;16.20;99.90;;;;;;5056146;28;20466;-81
2023/04/17 00:08:54;;;;;;;10.63;6.43;;;16.10;99.90;;;;;;5038487;28;20458;-82
2023/04/17 00:11:20;;;;;;;6.57;5.97;;;16.10;99.90;;;;;;5038181;28;20481;-82
2023/04/17 00:13:46;;;;;;;5.63;5.23;;;16.00;99.90;;;;;;5056428;28;20177;-82
2023/04/17 00:16:12;;;;;;;5.77;5.10;;;16.00;99.90;;;;;;5038148;28;20431;-82
2023/04/17 00:18:38;;;;;;;5.90;5.40;;;15.90;99.90;;;;;;5055957;28;20174;-81
2023/04/17 00:21:04;;;;;;;6.23;4.73;;;15.80;99.90;;;;;;5038082;28;20935;-82
2023/04/17 00:23:30;;;;;;;5.47;4.97;;;15.90;99.90;;;;;;5037923;28;20974;-81
2023/04/17 00:25:56;;;;;;;5.27;4.80;;;15.90;99.90;;;;;;5037997;28;20415;-82
2023/04/17 00:28:22;;;;;;;5.43;5.03;;;15.80;99.90;;;;;;5055653;28;20993;-81
2023/04/17 00:30:48;;;;;;;5.70;5.20;;;15.80;99.90;;;;;;5055605;28;20178;-82
2023/04/17 00:33:13;;;;;;;5.90;5.33;;;15.80;99.90;;;;;;5056071;28;20431;-82
2023/04/17 00:35:39;;;;;;;5.70;5.20;;;15.70;99.90;;;;;;5055786;28;20189;-81
2023/04/17 00:38:06;;;;;;;6.67;6.07;;;15.70;99.90;;;;;;5055915;28;20190;-82
2023/04/17 00:40:32;;;;;;;8.03;5.37;;;15.70;99.90;;;;;;5055504;28;20311;-81
2023/04/17 00:43:02;;;;;;;5.70;5.20;;;15.70;99.90;;;;;;5055804;28;20489;-82
2023/04/17 00:45:29;;;;;;;6.70;5.73;;;15.60;99.90;;;;;;5037704;28;20189;-81
2023/04/17 00:47:58;;;;;;;6.70;5.50;;;15.60;99.90;;;;;;5037444;28;20482;-82
2023/04/17 00:50:26;;;;;;;5.50;5.00;;;15.60;99.90;;;;;;5055391;28;20415;-82
2023/04/17 00:52:51;;;;;;;7.00;5.87;;;15.60;99.90;;;;;;5055232;28;20434;-81
2023/04/17 00:55:18;;;;;;;5.30;4.90;;;15.60;99.90;;;;;;5055418;28;20410;-80
2023/04/17 00:57:44;;;;;;;5.90;5.40;;;15.60;99.90;;;;;;5055262;28;20568;-82
2023/04/17 01:00:11;;;;;;;6.60;5.60;;;15.60;99.90;;;;;;5037616;28;20864;-82
2023/04/17 01:02:37;;;;;;;6.13;5.63;;;15.60;99.90;;;;;;5037262;28;20451;-82
2023/04/17 01:05:03;;;;;;;6.20;5.53;;;15.60;99.90;;;;;;5055434;28;20403;-82
2023/04/17 01:07:29;;;;;;;6.63;5.93;;;15.50;99.90;;;;;;5037179;28;20218;-82
2023/04/17 01:09:55;;;;;;;7.63;6.60;;;15.50;99.90;;;;;;5055026;28;20407;-82
2023/04/17 01:12:22;;;;;;;6.63;5.90;;;15.50;99.90;;;;;;5054885;28;20834;-83
2023/04/17 01:14:50;;;;;;;6.40;5.80;;;15.50;99.90;;;;;;5037050;28;20465;-80
2023/04/17 01:17:18;;;;;;;6.90;6.30;;;15.50;99.90;;;;;;5036982;28;20781;-83
2023/04/17 01:19:44;;;;;;;6.33;5.80;;;15.40;99.90;;;;;;5037010;28;20513;-81
2023/04/17 01:22:10;;;;;;;6.43;5.93;;;15.40;99.90;;;;;;5036788;28;20447;-81
2023/04/17 01:24:36;;;;;;;7.50;6.30;;;15.30;99.90;;;;;;5036853;28;20431;-81
2023/04/17 01:27:03;;;;;;;8.00;6.57;;;15.30;99.90;;;;;;5036478;28;20497;-82
2023/04/17 01:29:29;;;;;;;6.73;6.13;;;15.20;99.90;;;;;;5036869;28;20422;-81
2023/04/17 01:31:55;;;;;;;6.90;6.30;;;15.10;99.90;;;;;;5036646;28;20836;-82
2023/04/17 01:34:21;;;;;;;7.13;6.50;;;15.10;99.90;;;;;;5036969;28;20426;-82
2023/04/17 01:36:47;;;;;;;6.90;6.30;;;15.10;99.90;;;;;;5054567;28;20430;-82
2023/04/17 01:39:12;;;;;;;7.13;6.43;;;15.10;99.90;;;;;;5054402;28;20698;-82
2023/04/17 01:41:38;;;;;;;8.37;6.37;;;15.00;99.90;;;;;;5054230;28;20521;-82
2023/04/17 01:44:04;;;;;;;13.53;7.40;;;15.00;99.90;;;;;;5036377;28;20536;-80
2023/04/17 01:46:30;;;;;;;7.80;7.07;;;14.90;99.90;;;;;;5036264;28;20251;-82
2023/04/17 01:48:56;;;;;;;7.87;7.07;;;14.90;99.90;;;;;;5054749;28;20915;-82
2023/04/17 01:51:21;;;;;;;7.73;6.93;;;14.90;99.90;;;;;;5054240;28;20182;-81
2023/04/17 01:53:47;;;;;;;7.77;7.07;;;14.90;99.90;;;;;;5054233;28;20432;-82
2023/04/17 01:56:13;;;;;;;7.97;7.17;;;14.80;99.90;;;;;;5054322;28;20174;-82
2023/04/17 01:58:39;;;;;;;7.30;6.60;;;14.80;99.90;;;;;;5036434;28;20227;-81
2023/04/17 02:01:04;;;;;;;7.13;6.53;;;14.80;99.90;;;;;;5036249;28;20174;-81
2023/04/17 02:03:30;;;;;;;8.53;7.70;;;14.80;99.90;;;;;;5036292;28;20446;-82
2023/04/17 02:05:56;;;;;;;7.80;6.63;;;14.70;99.90;;;;;;5054071;28;20783;-80
2023/04/17 02:08:22;;;;;;;9.33;7.70;;;14.70;99.90;;;;;;5035817;28;20217;-82
2023/04/17 02:10:48;;;;;;;7.40;6.70;;;14.70;99.90;;;;;;5053997;28;20254;-82
2023/04/17 02:13:14;;;;;;;8.20;7.40;;;14.60;99.90;;;;;;5036195;28;20438;-82
2023/04/17 02:15:40;;;;;;;7.43;6.83;;;14.60;99.90;;;;;;5054070;28;20407;-82
2023/04/17 02:18:06;;;;;;;9.17;6.87;;;14.60;99.90;;;;;;5036183;28;20198;-82
2023/04/17 02:20:35;;;;;;;8.63;7.13;;;14.50;99.90;;;;;;5035933;28;20433;-81
2023/04/17 02:23:02;;;;;;;6.90;6.30;;;14.50;99.90;;;;;;5054055;28;20292;-82
2023/04/17 02:25:28;;;;;;;9.47;8.57;;;14.40;99.90;;;;;;5053689;28;20791;-82
2023/04/17 02:27:55;;;;;;;10.90;9.10;;;14.40;99.90;;;;;;5035788;28;20474;-81
2023/04/17 02:30:25;;;;;;;10.13;9.13;;;14.30;99.90;;;;;;5053995;28;20410;-82
2023/04/17 02:32:52;;;;;;;9.13;8.33;;;14.30;99.90;;;;;;5035723;28;20454;-82
2023/04/17 02:35:22;;;;;;;7.77;7.10;;;14.20;99.90;;;;;;5053590;28;20430;-81
2023/04/17 02:37:48;;;;;;;7.87;6.93;;;14.20;99.90;;;;;;5053677;28;20946;-81
2023/04/17 02:40:14;;;;;;;7.60;6.90;;;14.20;99.90;;;;;;5053539;28;20399;-82
2023/04/17 02:42:40;;;;;;;8.93;8.03;;;14.20;99.90;;;;;;5053587;28;20197;-80
2023/04/17 02:45:07;;;;;;;7.53;6.83;;;14.20;99.90;;;;;;5035814;28;20419;-81
2023/04/17 02:47:32;;;;;;;7.73;6.80;;;14.10;99.90;;;;;;5035505;28;20479;-82
2023/04/17 02:49:59;;;;;;;7.77;7.07;;;14.10;99.90;;;;;;5035654;28;20417;-81
2023/04/17 02:52:26;;;;;;;11.17;8.07;;;14.10;99.90;;;;;;5035482;28;20293;-81
2023/04/17 02:54:52;;;;;;;10.00;8.60;;;14.10;99.90;;;;;;5036965;28;20561;-81
2023/04/17 02:57:17;;;;;;;10.57;7.83;;;14.10;99.90;;;;;;5057496;28;20450;-81
2023/04/17 02:59:43;;;;;;;8.80;7.90;;;14.10;99.90;;;;;;5057486;28;20626;-82
2023/04/17 03:02:09;;;;;;;10.47;7.60;;;14.20;99.90;;;;;;5039720;28;20371;-82
2023/04/17 03:04:37;;;;;;;9.73;8.83;;;14.40;99.90;;;;;;5057457;28;20170;-82
2023/04/17 03:07:03;;;;;;;8.87;7.97;;;14.40;99.90;;;;;;5039162;28;20271;-82
2023/04/17 03:09:29;;;;;;;8.10;7.30;;;14.50;99.90;;;;;;5057387;28;20415;-81
2023/04/17 03:11:55;;;;;;;7.70;7.00;;;14.50;99.90;;;;;;5039351;28;20202;-82
2023/04/17 03:14:21;;;;;;;9.67;8.50;;;14.50;99.90;;;;;;5039532;28;20433;-80
2023/04/17 03:16:47;;;;;;;9.20;7.80;;;14.50;99.90;;;;;;5039362;28;20339;-82
2023/04/17 03:19:12;;;;;;;8.37;7.50;;;14.50;99.90;;;;;;5039534;28;20200;-81
2023/04/17 03:21:38;;;;;;;9.77;8.97;;;14.50;99.90;;;;;;5056981;28;20343;-81
2023/04/17 03:24:04;;;;;;;7.77;7.00;;;14.60;99.90;;;;;;5039388;28;20181;-82
2023/04/17 03:26:29;;;;;;;7.97;7.20;;;14.60;99.90;;;;;;5056874;28;20255;-81
2023/04/17 03:28:55;;;;;;;7.97;7.27;;;14.70;99.90;;;;;;5039179;28;20437;-82
2023/04/17 03:31:22;;;;;;;6.70;6.20;;;14.70;99.90;;;;;;5039029;28;20182;-82
2023/04/17 03:33:48;;;;;;;7.87;7.07;;;14.70;99.90;;;;;;5057339;28;20933;-81
2023/04/17 03:36:16;;;;;;;7.47;6.77;;;14.70;99.90;;;;;;5038881;28;20427;-81
2023/04/17 03:38:42;;;;;;;12.20;8.10;;;14.70;99.90;;;;;;5057090;28;20842;-82
2023/04/17 03:41:09;;;;;;;8.30;6.83;;;14.80;99.90;;;;;;5056595;28;20554;-82
2023/04/17 03:43:35;;;;;;;7.77;7.00;;;14.80;99.90;;;;;;5039005;28;20788;-82
2023/04/17 03:46:00;;;;;;;9.60;7.57;;;14.80;99.90;;;;;;5056647;28;20456;-81
2023/04/17 03:48:26;;;;;;;7.47;6.70;;;14.90;99.90;;;;;;5038579;28;21006;-81
2023/04/17 03:50:52;;;;;;;7.33;6.70;;;14.90;99.90;;;;;;5038594;28;20635;-81
2023/04/17 03:53:18;;;;;;;7.57;6.77;;;14.90;99.90;;;;;;5038638;28;20229;-81
2023/04/17 03:55:44;;;;;;;9.60;7.50;;;14.90;99.90;;;;;;5038348;28;20182;-81
2023/04/17 03:58:10;;;;;;;7.43;6.77;;;14.90;99.90;;;;;;5056505;28;20439;-82
2023/04/17 04:00:37;;;;;;;7.53;6.70;;;14.90;99.90;;;;;;5038523;28;20797;-80
2023/04/17 04:03:03;;;;;;;10.13;8.20;;;14.90;99.90;;;;;;5056153;28;20858;-81
2023/04/17 04:05:29;;;;;;;9.30;6.90;;;14.80;99.90;;;;;;5055715;28;20513;-81
2023/04/17 04:07:55;;;;;;;7.07;6.37;;;14.70;99.90;;;;;;5056363;28;20611;-81
2023/04/17 04:10:21;;;;;;;7.97;7.17;;;14.60;99.90;;;;;;5038245;28;20265;-82
2023/04/17 04:12:47;;;;;;;7.90;6.70;;;14.70;99.90;;;;;;5052614;28;20464;-81
2023/04/17 04:15:13;;;;;;;9.57;7.80;;;14.70;99.90;;;;;;5035884;28;20175;-80
2023/04/17 04:17:38;;;;;;;7.87;7.03;;;14.70;99.90;;;;;;5035759;28;20427;-80
2023/04/17 04:20:07;;;;;;;9.10;7.60;;;14.80;99.90;;;;;;5035929;28;20179;-80
2023/04/17 04:22:33;;;;;;;8.07;7.33;;;14.80;99.90;;;;;;5018138;28;20206;-82
2023/04/17 04:24:59;;;;;;;8.17;7.03;;;14.80;99.90;;;;;;5035176;28;20396;-82
2023/04/17 04:27:26;;;;;;;10.37;8.33;;;14.80;99.90;;;;;;5029479;28;21034;-82
2023/04/17 04:29:57;;;;;;;8.40;7.60;;;14.80;99.90;;;;;;5054421;28;20411;-82
2023/04/17 04:32:24;;;;;;;8.37;7.57;;;14.80;99.90;;;;;;5037693;28;20486;-80
2023/04/17 04:34:50;;;;;;;9.47;8.57;;;14.80;99.90;;;;;;5037192;28;20506;-80
2023/04/17 04:37:20;;;;;;;14.03;9.13;;;14.80;99.90;;;;;;5054076;28;20431;-80
2023/04/17 04:39:52;;;;;;;9.10;8.20;;;14.90;99.90;;;;;;5037403;28;20399;-80
2023/04/17 04:42:20;;;;;;;8.97;8.00;;;14.90;99.90;;;;;;5054930;28;20474;-82
2023/04/17 04:44:46;;;;;;;8.67;7.57;;;15.00;99.90;;;;;;5055044;28;20426;-79
2023/04/17 04:47:12;;;;;;;7.80;6.97;;;15.00;99.90;;;;;;5055313;28;20819;-83
2023/04/17 04:49:38;;;;;;;11.10;7.23;;;15.10;99.90;;;;;;5055506;28;20181;-82
2023/04/17 04:52:04;;;;;;;10.47;8.73;;;15.10;99.90;;;;;;5033103;28;20195;-80
2023/04/17 04:54:29;;;;;;;10.63;7.90;;;15.10;99.90;;;;;;5017877;28;20560;-82
2023/04/17 04:56:55;;;;;;;9.23;8.30;;;15.10;99.90;;;;;;5035313;28;20198;-82
2023/04/17 04:59:21;;;;;;;9.00;8.07;;;15.10;99.90;;;;;;5035871;28;20175;-82
2023/04/17 05:01:47;;;;;;;11.83;9.33;;;15.20;99.90;;;;;;5035080;28;20509;-81
2023/04/17 05:04:12;;;;;;;25.70;19.50;;;15.20;99.90;;;;;;5035694;28;20178;-82
2023/04/17 05:06:38;;;;;;;12.40;9.73;;;15.20;99.90;;;;;;5035142;28;20287;-81
2023/04/17 05:09:04;;;;;;;13.83;9.40;;;15.20;99.90;;;;;;5035530;28;20225;-83
2023/04/17 05:11:31;;;;;;;21.40;10.10;;;15.30;99.90;;;;;;5017337;28;20687;-82
2023/04/17 05:13:56;;;;;;;13.50;9.73;;;15.30;99.90;;;;;;5035396;28;20419;-83
2023/04/17 05:16:22;;;;;;;11.33;9.60;;;15.30;99.90;;;;;;5016959;28;20513;-80
2023/04/17 05:18:48;;;;;;;10.87;8.80;;;15.20;99.90;;;;;;5016590;28;20659;-82
2023/04/17 05:21:13;;;;;;;10.60;9.50;;;15.10;99.90;;;;;;5015843;28;20170;-81
2023/04/17 05:23:39;;;;;;;12.20;9.50;;;15.10;99.90;;;;;;5015981;28;20210;-83
2023/04/17 05:26:07;;;;;;;9.80;8.80;;;15.10;99.90;;;;;;5016516;28;20549;-80
2023/04/17 05:28:33;;;;;;;10.50;8.77;;;15.10;99.90;;;;;;5041051;28;20296;-81
2023/04/17 05:30:59;;;;;;;10.83;8.60;;;15.10;99.90;;;;;;5054582;28;20854;-82
2023/04/17 05:33:25;;;;;;;11.70;8.70;;;15.10;99.90;;;;;;5054868;28;20243;-83
2023/04/17 05:35:51;;;;;;;12.30;8.67;;;15.10;99.90;;;;;;5036569;28;20426;-81
2023/04/17 05:38:16;;;;;;;12.17;9.33;;;15.10;99.90;;;;;;5036796;28;20261;-82
2023/04/17 05:40:42;;;;;;;9.03;8.20;;;15.10;99.90;;;;;;5036133;28;20505;-80
2023/04/17 05:43:11;;;;;;;13.97;9.87;;;15.10;99.90;;;;;;5036733;28;20440;-82
2023/04/17 05:45:37;;;;;;;9.63;8.50;;;15.20;99.90;;;;;;5036205;28;20426;-80
2023/04/17 05:48:03;;;;;;;10.53;9.27;;;15.20;99.90;;;;;;5053720;28;20524;-80
2023/04/17 05:50:29;;;;;;;9.73;8.70;;;15.10;99.90;;;;;;5053187;28;20849;-82
2023/04/17 05:52:55;;;;;;;9.67;8.40;;;15.10;99.90;;;;;;5033789;28;20453;-81
2023/04/17 05:55:21;;;;;;;10.77;8.80;;;15.20;99.90;;;;;;5049536;28;20903;-80
2023/04/17 05:57:47;;;;;;;12.67;9.60;;;15.20;99.90;;;;;;5046609;28;20452;-82
2023/04/17 06:00:13;;;;;;;10.53;8.63;;;15.20;99.90;;;;;;5038531;28;20428;-80
2023/04/17 06:02:43;;;;;;;10.50;9.40;;;15.30;99.90;;;;;;5051023;28;20194;-81
2023/04/17 06:05:09;;;;;;;9.57;8.57;;;15.30;99.90;;;;;;5033494;28;20789;-80
2023/04/17 06:07:38;;;;;;;9.80;8.80;;;15.30;99.90;;;;;;5033061;28;20486;-82
2023/04/17 06:10:07;;;;;;;10.10;8.53;;;15.30;99.90;;;;;;5046186;28;20873;-80
2023/04/17 06:12:34;;;;;;;10.67;8.03;;;15.40;99.90;;;;;;5029445;28;20462;-81
2023/04/17 06:15:00;;;;;;;9.70;8.77;;;15.40;99.90;;;;;;5043686;28;20758;-81
2023/04/17 06:17:25;;;;;;;9.03;8.13;;;15.40;99.90;;;;;;5029670;28;20465;-83
2023/04/17 06:19:51;;;;;;;9.83;8.17;;;15.50;99.90;;;;;;5043565;28;20435;-81
2023/04/17 06:22:17;;;;;;;10.10;8.57;;;15.50;99.90;;;;;;5025221;28;20208;-80
2023/04/17 06:24:43;;;;;;;9.70;8.40;;;15.60;99.90;;;;;;5038580;28;20433;-82
2023/04/17 06:27:08;;;;;;;9.80;8.47;;;15.60;99.90;;;;;;5047576;28;20213;-83
2023/04/17 06:29:34;;;;;;;9.90;8.87;;;15.60;99.90;;;;;;5024976;28;20202;-80
2023/04/17 06:32:00;;;;;;;11.20;8.90;;;15.70;99.90;;;;;;5022052;28;20253;-82
2023/04/17 06:34:25;;;;;;;11.47;8.13;;;15.70;99.90;;;;;;5014857;28;20631;-82
2023/04/17 06:36:52;;;;;;;10.17;8.23;;;15.70;99.90;;;;;;5034751;28;20260;-82
2023/04/17 06:39:17;;;;;;;10.77;8.60;;;15.80;99.90;;;;;;5033676;28;20186;-82
2023/04/17 06:41:43;;;;;;;9.17;8.27;;;15.90;99.90;;;;;;5012982;28;20833;-81
2023/04/17 06:44:09;;;;;;;9.80;8.30;;;16.00;99.90;;;;;;5031276;28;20588;-81
2023/04/17 06:46:35;;;;;;;9.23;7.57;;;16.10;99.90;;;;;;5010353;28;20195;-82
2023/04/17 06:49:01;;;;;;;8.80;7.90;;;16.10;99.90;;;;;;5011153;28;20305;-82
2023/04/17 06:51:28;;;;;;;8.60;7.30;;;16.10;99.90;;;;;;5017157;28;20445;-80
2023/04/17 06:53:54;;;;;;;9.63;8.63;;;16.20;99.90;;;;;;5048222;28;20410;-81
2023/04/17 06:56:19;;;;;;;9.80;8.40;;;16.30;99.90;;;;;;5032864;28;20698;-81
2023/04/17 06:58:46;;;;;;;9.23;7.40;;;16.40;99.90;;;;;;5026087;28;20543;-83
2023/04/17 07:14:07;;;;;;;9.80;8.80;;;16.60;99.90;;;;;;5127538;27;20664;-81
2023/04/17 07:16:33;;;;;;;8.50;7.80;;;17.30;99.90;;;;;;5109449;27;20439;-83
2023/04/17 07:18:58;;;;;;;8.53;7.47;;;17.30;99.90;;;;;;5140386;27;20303;-83
2023/04/17 07:29:11;;;;;;;8.43;7.67;;;17.50;99.90;;;;;;5531396;22;20837;-95
2023/04/17 07:31:37;;;;;;;8.83;8.00;;;17.60;99.90;;;;;;5050051;22;20401;-80
2023/04/17 07:34:04;;;;;;;9.07;8.17;;;17.80;99.90;;;;;;4967038;28;20850;-82
2023/04/17 07:36:29;;;;;;;7.70;7.00;;;17.90;99.90;;;;;;4967801;28;20406;-81
2023/04/17 07:38:55;;;;;;;8.07;7.27;;;18.10;99.90;;;;;;4967416;28;20484;-82
2023/04/17 07:41:21;;;;;;;11.20;7.13;;;18.30;99.90;;;;;;4985882;28;20283;-84
2023/04/17 07:43:47;;;;;;;7.33;6.57;;;18.40;99.90;;;;;;4970582;28;20440;-82
2023/04/17 07:46:12;;;;;;;9.50;7.57;;;18.50;99.90;;;;;;4971095;28;20173;-82
2023/04/17 07:48:38;;;;;;;9.70;6.97;;;18.50;99.90;;;;;;4986438;28;20208;-82
2023/04/17 07:51:04;;;;;;;9.20;7.27;;;18.60;99.90;;;;;;4983983;28;20181;-83
2023/04/17 07:53:30;;;;;;;8.20;7.00;;;18.70;99.90;;;;;;4966969;28;20674;-83
2023/04/17 07:55:57;;;;;;;7.87;6.50;;;18.80;99.90;;;;;;4969003;28;20435;-82
2023/04/17 07:58:23;;;;;;;8.13;6.30;;;18.80;99.90;;;;;;4969807;28;20513;-83
2023/04/17 08:00:52;;;;;;;8.40;6.67;;;18.90;99.90;;;;;;4970455;28;20412;-81
2023/04/17 08:03:20;;;;;;;8.00;7.20;;;19.00;99.90;;;;;;4987177;28;20475;-81
2023/04/17 08:05:47;;;;;;;6.90;6.13;;;19.00;99.90;;;;;;4969231;28;20666;-84
2023/04/17 08:08:14;;;;;;;7.10;6.40;;;19.00;99.90;;;;;;4961027;28;20964;-82
2023/04/17 08:10:40;;;;;;;60.00;35.53;;;19.10;99.90;;;;;;4984529;28;20427;-82
2023/04/17 08:13:06;;;;;;;7.63;6.83;;;19.10;99.90;;;;;;4977761;28;20877;-83
2023/04/17 08:15:32;;;;;;;7.80;7.00;;;19.20;99.90;;;;;;4971440;28;20429;-83
2023/04/17 08:17:58;;;;;;;7.77;6.97;;;19.20;99.90;;;;;;4955506;28;20662;-82
2023/04/17 08:20:23;;;;;;;7.60;6.80;;;19.30;99.90;;;;;;4954300;28;20463;-83
2023/04/17 08:22:49;;;;;;;8.70;7.40;;;19.40;99.90;;;;;;4971407;28;20619;-83
2023/04/17 08:25:15;;;;;;;7.50;6.47;;;19.50;99.90;;;;;;4969940;28;20200;-82
2023/04/17 08:27:42;;;;;;;6.30;5.70;;;19.60;99.90;;;;;;4954625;28;20195;-82
2023/04/17 08:30:10;;;;;;;8.03;6.27;;;19.60;99.90;;;;;;4956529;28;20439;-84
2023/04/17 08:32:44;;;;;;;7.17;6.47;;;19.80;99.90;;;;;;4954720;28;20488;-83
2023/04/17 08:35:11;;;;;;;7.30;6.60;;;19.90;99.90;;;;;;4974548;28;20488;-82
2023/04/17 08:37:38;;;;;;;8.70;6.43;;;20.00;99.90;;;;;;4956652;28;20572;-83
2023/04/17 08:40:08;;;;;;;6.83;5.30;;;20.10;99.90;;;;;;4955262;28;20910;-84
2023/04/17 08:42:41;;;;;;;7.43;6.70;;;20.10;99.90;;;;;;4952910;28;20478;-82
2023/04/17 08:45:10;;;;;;;8.27;6.80;;;20.30;99.90;;;;;;4968287;28;20446;-84
2023/04/17 08:47:38;;;;;;;8.40;7.13;;;20.40;99.90;;;;;;4944733;28;21057;-84
2023/04/17 08:50:08;;;;;;;7.70;6.53;;;20.50;99.90;;;;;;4946621;28;20462;-83
2023/04/17 08:52:38;;;;;;;8.33;6.27;;;20.90;99.90;;;;;;4967408;28;20442;-83
2023/04/17 08:55:05;;;;;;;6.20;5.60;;;21.50;99.90;;;;;;4964153;28;20680;-83
2023/04/17 08:57:30;;;;;;;6.40;5.80;;;22.10;99.90;;;;;;4951626;28;20932;-83
2023/04/17 08:59:57;;;;;;;7.30;5.97;;;22.70;99.90;;;;;;4962387;28;20554;-82
2023/04/17 09:02:22;;;;;;;6.30;5.70;;;23.40;99.90;;;;;;4952496;28;20320;-83
2023/04/17 09:04:48;;;;;;;7.90;6.43;;;23.80;99.90;;;;;;4966034;28;20896;-83
2023/04/17 09:07:14;;;;;;;6.00;5.40;;;24.00;99.90;;;;;;4964677;28;20275;-82
2023/04/17 09:09:55;;;;;;;7.00;6.30;;;24.00;99.90;;;;;;4953472;28;20462;-83
2023/04/17 09:12:22;;;;;;;6.60;6.00;;;23.70;99.90;;;;;;4970792;28;20446;-83
2023/04/17 09:14:48;;;;;;;6.60;6.03;;;23.30;99.90;;;;;;4948217;28;20533;-84
2023/04/17 09:17:16;;;;;;;6.20;5.60;;;23.30;99.90;;;;;;4968621;28;20929;-82
2023/04/17 09:20:05;;;;;;;6.17;5.60;;;23.30;99.90;;;;;;4968308;28;20720;-84
2023/04/17 09:22:31;;;;;;;6.00;5.50;;;23.30;99.90;;;;;;4945179;28;20864;-84
2023/04/17 09:24:56;;;;;;;6.17;5.47;;;23.10;99.90;;;;;;4966700;28;20449;-82
2023/04/17 09:27:24;;;;;;;8.90;5.10;;;23.00;99.90;;;;;;4966971;28;20191;-83
2023/04/17 09:29:58;;;;;;;6.37;5.73;;;23.00;99.90;;;;;;4944703;28;20543;-82
2023/04/17 09:32:25;;;;;;;7.27;6.57;;;23.00;99.90;;;;;;4961332;28;20564;-83
2023/04/17 09:34:52;;;;;;;5.87;5.37;;;23.00;99.90;;;;;;4940424;28;20460;-82
2023/04/17 09:37:18;;;;;;;6.10;5.60;;;23.10;99.90;;;;;;4948994;28;20704;-83
2023/04/17 09:39:58;;;;;;;5.53;4.97;;;23.10;99.90;;;;;;4950788;28;20455;-82
2023/04/17 09:42:23;;;;;;;5.27;4.77;;;23.20;99.90;;;;;;4952568;28;20478;-83
2023/04/17 09:44:49;;;;;;;5.93;5.17;;;23.20;99.90;;;;;;4969885;28;21006;-83
2023/04/17 09:47:18;;;;;;;5.97;5.07;;;23.20;99.90;;;;;;4952007;28;20231;-82
2023/04/17 09:49:51;;;;;;;5.73;5.23;;;23.00;99.90;;;;;;4969156;28;20216;-83
2023/04/17 09:52:23;;;;;;;7.83;5.30;;;22.90;99.90;;;;;;4954001;28;20434;-83
2023/04/17 09:54:50;;;;;;;5.10;4.60;;;22.70;99.90;;;;;;4953363;28;20446;-82
2023/04/17 09:57:17;;;;;;;5.30;4.70;;;22.60;99.90;;;;;;4971440;28;20434;-82
2023/04/17 09:59:44;;;;;;;5.00;4.50;;;22.60;99.90;;;;;;4951140;28;21005;-82
2023/04/17 10:02:13;;;;;;;5.30;4.80;;;22.50;99.90;;;;;;4953582;28;21048;-83
2023/04/17 10:04:40;;;;;;;5.03;4.60;;;22.50;99.90;;;;;;4954042;28;20445;-82
2023/04/17 10:07:06;;;;;;;4.50;4.10;;;22.40;99.90;;;;;;4972143;28;21030;-83
2023/04/17 10:09:32;;;;;;;5.47;4.97;;;22.30;99.90;;;;;;4952669;28;20594;-83
2023/04/17 10:12:00;;;;;;;6.80;5.13;;;22.10;99.90;;;;;;4955619;28;20443;-82
2023/04/17 10:14:31;;;;;;;4.70;4.30;;;22.10;99.90;;;;;;4975415;28;20291;-83
2023/04/17 10:16:57;;;;;;;5.43;4.40;;;22.00;99.90;;;;;;4975019;28;20438;-83
2023/04/17 10:19:31;;;;;;;4.87;4.37;;;21.90;99.90;;;;;;4957146;28;20512;-83
2023/04/17 10:22:18;;;;;;;4.80;4.07;;;21.80;99.90;;;;;;4974829;28;20474;-82
2023/04/17 10:24:46;;;;;;;5.87;4.50;;;21.80;99.90;;;;;;4956571;28;20465;-82
2023/04/17 10:27:26;;;;;;;5.87;5.13;;;21.70;99.90;;;;;;4966657;28;20551;-83
2023/04/17 10:29:58;;;;;;;5.10;4.60;;;21.60;99.90;;;;;;4954431;28;20439;-83
2023/04/17 10:32:27;;;;;;;4.60;4.20;;;21.60;99.90;;;;;;4966764;28;20493;-83
2023/04/17 10:34:56;;;;;;;4.10;3.70;;;21.60;99.90;;;;;;4972923;28;20458;-82
2023/04/17 10:37:48;;;;;;;5.13;4.63;;;21.60;99.90;;;;;;4951929;28;20851;-81
2023/04/17 10:40:26;;;;;;;4.10;3.70;;;21.60;99.90;;;;;;4951169;28;20489;-83
2023/04/17 10:43:13;;;;;;;4.40;4.00;;;21.60;99.90;;;;;;4956073;28;20478;-82
2023/04/17 10:45:57;;;;;;;4.20;3.70;;;21.50;99.90;;;;;;4969038;28;20441;-82
2023/04/17 10:48:28;;;;;;;4.53;3.93;;;21.50;99.90;;;;;;4968747;28;20446;-83
2023/04/17 10:50:55;;;;;;;5.60;4.47;;;21.40;99.90;;;;;;4964181;28;20422;-82
2023/04/17 10:53:42;;;;;;;4.23;3.83;;;21.40;99.90;;;;;;4969035;28;20830;-83
2023/04/17 10:56:11;;;;;;;4.27;3.63;;;21.40;99.90;;;;;;4954578;28;20505;-82
2023/04/17 10:58:38;;;;;;;5.70;4.50;;;21.40;99.90;;;;;;4967791;28;20469;-83
2023/04/17 11:01:10;;;;;;;5.00;3.73;;;21.30;99.90;;;;;;4972661;28;20986;-82
2023/04/17 11:03:37;;;;;;;4.17;3.77;;;21.40;99.90;;;;;;4941660;28;20492;-83
2023/04/17 11:06:04;;;;;;;5.47;4.20;;;21.50;99.90;;;;;;4957836;28;20798;-82
2023/04/17 11:08:29;;;;;;;5.40;4.40;;;21.50;99.90;;;;;;4943835;28;20469;-82
2023/04/17 11:10:55;;;;;;;4.70;3.87;;;21.60;99.90;;;;;;4948540;28;21024;-83
2023/04/17 11:13:21;;;;;;;5.10;3.90;;;21.80;99.90;;;;;;4966989;28;20231;-82
2023/04/17 11:15:49;;;;;;;4.47;3.30;;;22.00;99.90;;;;;;4966799;28;20740;-83
2023/04/17 11:18:14;;;;;;;3.87;3.57;;;22.00;99.90;;;;;;4951932;28;20239;-82
2023/04/17 11:20:40;;;;;;;4.73;3.90;;;22.10;99.90;;;;;;4951516;28;20422;-83
2023/04/17 11:23:06;;;;;;;3.73;3.43;;;22.10;99.90;;;;;;4965789;28;20470;-83
2023/04/17 11:25:32;;;;;;;9.57;5.93;;;21.90;99.90;;;;;;4945586;28;20291;-85
2023/04/17 11:28:00;;;;;;;10.03;4.93;;;21.80;99.90;;;;;;4962079;28;20474;-80
2023/04/17 11:30:41;;;;;;;6.57;5.23;;;21.70;99.90;;;;;;4961446;28;20453;-81
2023/04/17 11:33:07;;;;;;;6.17;4.97;;;21.60;99.90;;;;;;4949978;28;20501;-86
2023/04/17 11:35:35;;;;;;;5.20;4.73;;;21.50;99.90;;;;;;4949705;28;21119;-81
2023/04/17 11:38:03;;;;;;;5.50;5.10;;;21.30;99.90;;;;;;4967032;28;20478;-81
2023/04/17 11:40:29;;;;;;;5.60;5.10;;;21.20;99.90;;;;;;4967250;28;20525;-84
2023/04/17 11:42:55;;;;;;;5.33;4.83;;;21.10;99.90;;;;;;4967077;28;21113;-86
2023/04/17 11:45:21;;;;;;;6.07;5.53;;;20.90;99.90;;;;;;4968329;28;20692;-80
2023/04/17 11:47:47;;;;;;;6.37;4.97;;;20.70;99.90;;;;;;4966111;28;20465;-84
2023/04/17 11:50:16;;;;;;;5.87;5.37;;;20.70;99.90;;;;;;4967156;28;20692;-80
2023/04/17 11:52:42;;;;;;;6.57;5.10;;;20.60;99.90;;;;;;4966160;28;20448;-86
2023/04/17 11:55:08;;;;;;;6.03;4.80;;;20.40;99.90;;;;;;4969508;28;20980;-84
2023/04/17 11:57:44;;;;;;;11.03;5.70;;;20.20;99.90;;;;;;4971770;28;21177;-81
2023/04/17 12:00:13;;;;;;;10.40;6.23;;;20.00;99.90;;;;;;4975836;28;20238;-85
2023/04/17 12:02:39;;;;;;;7.53;6.40;;;19.80;99.90;;;;;;4951730;28;20555;-85
2023/04/17 12:05:17;;;;;;;9.37;6.67;;;19.60;99.90;;;;;;4971992;28;20847;-80
2023/04/17 12:07:43;;;;;;;7.30;6.60;;;19.50;99.90;;;;;;4968263;28;20253;-80
2023/04/17 12:10:09;;;;;;;11.43;7.40;;;19.30;99.90;;;;;;4959940;28;20949;-85
2023/04/17 12:12:35;;;;;;;8.70;7.80;;;19.20;99.90;;;;;;4968926;28;20547;-80
2023/04/17 12:15:02;;;;;;;8.53;7.73;;;19.10;99.90;;;;;;4953377;28;20639;-85
2023/04/17 12:17:28;;;;;;;9.33;8.43;;;19.00;99.90;;;;;;4966556;28;20624;-80
2023/04/17 12:19:54;;;;;;;8.47;7.67;;;18.90;99.90;;;;;;4971128;28;20445;-84
2023/04/17 12:22:20;;;;;;;10.80;7.20;;;18.90;99.90;;;;;;4954342;28;20487;-86
2023/04/17 12:24:46;;;;;;;8.77;7.87;;;18.90;99.90;;;;;;4954797;28;20436;-86
2023/04/17 12:27:12;;;;;;;10.40;8.83;;;18.90;99.90;;;;;;4970320;28;20290;-85
2023/04/17 12:29:38;;;;;;;11.47;9.07;;;18.80;99.90;;;;;;4950712;28;20234;-85
2023/04/17 12:32:04;;;;;;;8.10;7.30;;;18.90;99.90;;;;;;4956541;28;20229;-84
2023/04/17 12:34:30;;;;;;;8.37;6.80;;;19.00;99.90;;;;;;4944857;28;21233;-85
2023/04/17 12:36:55;;;;;;;7.80;6.47;;;19.00;99.90;;;;;;4964977;28;20448;-80
2023/04/17 12:39:21;;;;;;;8.00;6.70;;;19.00;99.90;;;;;;4967631;28;20467;-80
2023/04/17 12:41:48;;;;;;;8.00;6.20;;;19.00;99.90;;;;;;4954659;28;20467;-81
2023/04/17 12:44:13;;;;;;;6.20;5.60;;;19.00;99.90;;;;;;4953692;28;20571;-80
2023/04/17 12:46:39;;;;;;;6.50;5.70;;;19.00;99.90;;;;;;4950108;28;20517;-80
2023/04/17 12:49:05;;;;;;;7.80;6.50;;;19.00;99.90;;;;;;4950990;28;20732;-85
2023/04/17 12:51:36;;;;;;;5.67;5.17;;;19.00;99.90;;;;;;4952759;28;20181;-85
2023/04/17 12:54:02;;;;;;;7.80;5.93;;;19.00;99.90;;;;;;4947302;28;20263;-84
2023/04/17 12:56:27;;;;;;;5.33;4.83;;;19.10;99.90;;;;;;4964734;28;20817;-84
2023/04/17 12:58:53;;;;;;;8.97;6.00;;;19.10;99.90;;;;;;4960553;28;20299;-80
2023/04/17 13:01:20;;;;;;;8.20;5.57;;;19.10;99.90;;;;;;4979803;28;20590;-84
2023/04/17 13:03:45;;;;;;;8.00;5.90;;;19.20;99.90;;;;;;4970429;28;20220;-84
2023/04/17 13:06:12;;;;;;;8.30;5.17;;;19.20;99.90;;;;;;4964670;28;20448;-80